Terminal Aerodrome Forecast
Issued by NWS

Home | Current Version | Previous Version | Graphics & Text | Print | Product List | Glossary On
Versions: 1 2 3 4 5 6 7 8 9 10 11 12 13 14 15 16 17 18 19 20 21 22 23 24 25 26 27 28 29 30 31 32 33 34 35 36 37 38
000
FTUS43 KGRB 172335
TAFRHI
TAF
KRHI 172335Z 1800/1824 29003KT P6SM FEW250
     FM181100 00000KT 1SM BR SCT200
      TEMPO 1811/1813 1/4SM FG BKN090
     FM181300 12005KT P6SM BKN250
     FM182000 10005KT P6SM OVC050 PROB30 1821/1824 6SM -SHRA=

USA.gov is the U.S. government's official web portal to all federal, state and local government web resources and services.